sensor_id;sensor_type;location;lat;lon;timestamp;P1;durP1;ratioP1;P2;durP2;ratioP2
8909;SDS011;4490;49.072;8.804;2022-08-21T00:00:50;4.37;;;2.43;;
8909;SDS011;4490;49.072;8.804;2022-08-21T00:03:16;5.43;;;2.73;;
8909;SDS011;4490;49.072;8.804;2022-08-21T00:05:44;5.57;;;2.63;;
8909;SDS011;4490;49.072;8.804;2022-08-21T00:08:15;4.20;;;2.80;;
8909;SDS011;4490;49.072;8.804;2022-08-21T00:10:42;2.97;;;2.53;;
8909;SDS011;4490;49.072;8.804;2022-08-21T00:13:09;3.47;;;2.40;;
8909;SDS011;4490;49.072;8.804;2022-08-21T00:15:36;4.73;;;2.67;;
8909;SDS011;4490;49.072;8.804;2022-08-21T00:18:06;4.70;;;2.77;;
8909;SDS011;4490;49.072;8.804;2022-08-21T00:20:33;5.00;;;2.70;;
8909;SDS011;4490;49.072;8.804;2022-08-21T00:22:59;4.63;;;2.77;;
8909;SDS011;4490;49.072;8.804;2022-08-21T00:25:26;6.57;;;2.80;;
8909;SDS011;4490;49.072;8.804;2022-08-21T00:27:52;4.20;;;2.67;;
8909;SDS011;4490;49.072;8.804;2022-08-21T00:30:19;3.77;;;2.67;;
8909;SDS011;4490;49.072;8.804;2022-08-21T00:32:46;6.33;;;2.97;;
8909;SDS011;4490;49.072;8.804;2022-08-21T00:35:13;7.00;;;2.90;;
8909;SDS011;4490;49.072;8.804;2022-08-21T00:37:40;3.03;;;2.60;;
8909;SDS011;4490;49.072;8.804;2022-08-21T00:40:07;4.07;;;3.00;;
8909;SDS011;4490;49.072;8.804;2022-08-21T00:42:36;7.00;;;2.67;;
8909;SDS011;4490;49.072;8.804;2022-08-21T00:45:03;3.40;;;3.03;;
8909;SDS011;4490;49.072;8.804;2022-08-21T00:47:29;3.97;;;2.90;;
8909;SDS011;4490;49.072;8.804;2022-08-21T00:49:55;3.30;;;2.47;;
8909;SDS011;4490;49.072;8.804;2022-08-21T00:52:22;5.80;;;3.03;;
8909;SDS011;4490;49.072;8.804;2022-08-21T00:54:51;5.63;;;2.80;;
8909;SDS011;4490;49.072;8.804;2022-08-21T00:57:29;3.93;;;2.70;;
8909;SDS011;4490;49.072;8.804;2022-08-21T00:59:58;4.63;;;2.50;;
8909;SDS011;4490;49.072;8.804;2022-08-21T01:02:26;5.43;;;2.97;;
8909;SDS011;4490;49.072;8.804;2022-08-21T01:04:51;6.70;;;3.00;;
8909;SDS011;4490;49.072;8.804;2022-08-21T01:07:17;5.97;;;2.90;;
8909;SDS011;4490;49.072;8.804;2022-08-21T01:09:45;4.97;;;3.00;;
8909;SDS011;4490;49.072;8.804;2022-08-21T01:12:12;5.20;;;3.10;;
8909;SDS011;4490;49.072;8.804;2022-08-21T01:14:39;6.40;;;3.30;;
8909;SDS011;4490;49.072;8.804;2022-08-21T01:17:07;4.93;;;3.20;;
8909;SDS011;4490;49.072;8.804;2022-08-21T01:19:35;6.37;;;3.10;;
8909;SDS011;4490;49.072;8.804;2022-08-21T01:22:01;5.47;;;2.80;;
8909;SDS011;4490;49.072;8.804;2022-08-21T01:24:27;3.83;;;2.97;;
8909;SDS011;4490;49.072;8.804;2022-08-21T01:26:52;6.17;;;3.10;;
8909;SDS011;4490;49.072;8.804;2022-08-21T01:32:02;3.73;;;2.80;;
8909;SDS011;4490;49.072;8.804;2022-08-21T01:34:30;5.77;;;2.83;;
8909;SDS011;4490;49.072;8.804;2022-08-21T01:36:58;5.90;;;3.10;;
8909;SDS011;4490;49.072;8.804;2022-08-21T01:39:23;4.37;;;3.27;;
8909;SDS011;4490;49.072;8.804;2022-08-21T01:41:49;4.93;;;3.27;;
8909;SDS011;4490;49.072;8.804;2022-08-21T01:44:15;5.80;;;3.10;;
8909;SDS011;4490;49.072;8.804;2022-08-21T01:46:40;4.03;;;2.77;;
8909;SDS011;4490;49.072;8.804;2022-08-21T01:49:06;6.27;;;2.87;;
8909;SDS011;4490;49.072;8.804;2022-08-21T01:51:32;10.33;;;3.03;;
8909;SDS011;4490;49.072;8.804;2022-08-21T01:53:58;6.33;;;3.10;;
8909;SDS011;4490;49.072;8.804;2022-08-21T01:56:24;7.27;;;3.57;;
8909;SDS011;4490;49.072;8.804;2022-08-21T01:58:50;5.07;;;3.10;;
8909;SDS011;4490;49.072;8.804;2022-08-21T02:01:16;4.17;;;2.83;;
8909;SDS011;4490;49.072;8.804;2022-08-21T02:03:42;4.50;;;3.33;;
8909;SDS011;4490;49.072;8.804;2022-08-21T02:06:11;7.60;;;3.90;;
8909;SDS011;4490;49.072;8.804;2022-08-21T02:08:39;5.10;;;3.43;;
8909;SDS011;4490;49.072;8.804;2022-08-21T02:11:05;4.87;;;3.13;;
8909;SDS011;4490;49.072;8.804;2022-08-21T02:13:31;4.43;;;3.20;;
8909;SDS011;4490;49.072;8.804;2022-08-21T02:15:57;4.57;;;3.20;;
8909;SDS011;4490;49.072;8.804;2022-08-21T02:18:22;4.50;;;3.43;;
8909;SDS011;4490;49.072;8.804;2022-08-21T02:20:48;6.23;;;3.70;;
8909;SDS011;4490;49.072;8.804;2022-08-21T02:23:14;5.00;;;3.37;;
8909;SDS011;4490;49.072;8.804;2022-08-21T02:25:40;4.93;;;3.10;;
8909;SDS011;4490;49.072;8.804;2022-08-21T02:28:07;7.20;;;3.43;;
8909;SDS011;4490;49.072;8.804;2022-08-21T02:30:37;4.97;;;3.60;;
8909;SDS011;4490;49.072;8.804;2022-08-21T02:33:07;5.87;;;3.40;;
8909;SDS011;4490;49.072;8.804;2022-08-21T02:35:34;5.20;;;3.30;;
8909;SDS011;4490;49.072;8.804;2022-08-21T02:38:02;5.03;;;3.40;;
8909;SDS011;4490;49.072;8.804;2022-08-21T02:40:32;4.70;;;3.50;;
8909;SDS011;4490;49.072;8.804;2022-08-21T02:43:00;3.97;;;3.33;;
8909;SDS011;4490;49.072;8.804;2022-08-21T02:45:27;6.10;;;3.40;;
8909;SDS011;4490;49.072;8.804;2022-08-21T02:47:55;4.57;;;3.30;;
8909;SDS011;4490;49.072;8.804;2022-08-21T02:50:24;8.87;;;3.60;;
8909;SDS011;4490;49.072;8.804;2022-08-21T02:52:56;5.10;;;3.30;;
8909;SDS011;4490;49.072;8.804;2022-08-21T02:55:23;6.03;;;3.30;;
8909;SDS011;4490;49.072;8.804;2022-08-21T02:57:51;6.90;;;3.63;;
8909;SDS011;4490;49.072;8.804;2022-08-21T03:00:18;8.63;;;3.90;;
8909;SDS011;4490;49.072;8.804;2022-08-21T03:02:45;5.03;;;3.57;;
8909;SDS011;4490;49.072;8.804;2022-08-21T03:05:12;4.67;;;3.80;;
8909;SDS011;4490;49.072;8.804;2022-08-21T03:07:40;7.20;;;3.57;;
8909;SDS011;4490;49.072;8.804;2022-08-21T03:10:07;5.20;;;3.67;;
8909;SDS011;4490;49.072;8.804;2022-08-21T03:12:33;3.90;;;3.60;;
8909;SDS011;4490;49.072;8.804;2022-08-21T03:15:03;9.60;;;3.77;;
8909;SDS011;4490;49.072;8.804;2022-08-21T03:17:31;5.80;;;3.70;;
8909;SDS011;4490;49.072;8.804;2022-08-21T03:19:57;6.73;;;4.13;;
8909;SDS011;4490;49.072;8.804;2022-08-21T03:22:23;4.20;;;3.73;;
8909;SDS011;4490;49.072;8.804;2022-08-21T03:24:49;5.13;;;3.80;;
8909;SDS011;4490;49.072;8.804;2022-08-21T03:27:16;5.67;;;3.37;;
8909;SDS011;4490;49.072;8.804;2022-08-21T03:29:41;4.63;;;3.43;;
8909;SDS011;4490;49.072;8.804;2022-08-21T03:32:07;6.43;;;3.80;;
8909;SDS011;4490;49.072;8.804;2022-08-21T03:34:36;6.87;;;3.43;;
8909;SDS011;4490;49.072;8.804;2022-08-21T03:37:02;5.67;;;3.40;;
8909;SDS011;4490;49.072;8.804;2022-08-21T03:39:29;4.63;;;3.50;;
8909;SDS011;4490;49.072;8.804;2022-08-21T03:41:54;5.20;;;3.73;;
8909;SDS011;4490;49.072;8.804;2022-08-21T03:44:20;6.53;;;3.53;;
8909;SDS011;4490;49.072;8.804;2022-08-21T03:46:46;6.10;;;3.70;;
8909;SDS011;4490;49.072;8.804;2022-08-21T03:49:11;8.93;;;3.60;;
8909;SDS011;4490;49.072;8.804;2022-08-21T03:51:38;6.07;;;3.60;;
8909;SDS011;4490;49.072;8.804;2022-08-21T03:54:03;7.43;;;3.63;;
8909;SDS011;4490;49.072;8.804;2022-08-21T03:56:29;6.47;;;3.70;;
8909;SDS011;4490;49.072;8.804;2022-08-21T03:58:55;6.97;;;3.80;;
8909;SDS011;4490;49.072;8.804;2022-08-21T04:01:21;5.57;;;3.80;;
8909;SDS011;4490;49.072;8.804;2022-08-21T04:03:47;6.87;;;3.40;;
8909;SDS011;4490;49.072;8.804;2022-08-21T04:06:12;9.07;;;3.50;;
8909;SDS011;4490;49.072;8.804;2022-08-21T04:08:38;5.30;;;3.73;;
8909;SDS011;4490;49.072;8.804;2022-08-21T04:11:04;4.73;;;3.57;;
8909;SDS011;4490;49.072;8.804;2022-08-21T04:13:31;5.93;;;3.70;;
8909;SDS011;4490;49.072;8.804;2022-08-21T04:15:57;7.07;;;3.70;;
8909;SDS011;4490;49.072;8.804;2022-08-21T04:18:25;6.20;;;4.00;;
8909;SDS011;4490;49.072;8.804;2022-08-21T04:20:51;7.20;;;3.87;;
8909;SDS011;4490;49.072;8.804;2022-08-21T04:23:19;5.17;;;3.57;;
8909;SDS011;4490;49.072;8.804;2022-08-21T04:25:45;6.63;;;3.80;;
8909;SDS011;4490;49.072;8.804;2022-08-21T04:28:11;7.13;;;3.70;;
8909;SDS011;4490;49.072;8.804;2022-08-21T04:30:36;4.87;;;3.70;;
8909;SDS011;4490;49.072;8.804;2022-08-21T04:33:02;7.70;;;3.47;;
8909;SDS011;4490;49.072;8.804;2022-08-21T04:35:28;6.17;;;3.60;;
8909;SDS011;4490;49.072;8.804;2022-08-21T04:37:55;6.63;;;3.73;;
8909;SDS011;4490;49.072;8.804;2022-08-21T04:40:21;7.47;;;3.80;;
8909;SDS011;4490;49.072;8.804;2022-08-21T04:42:50;5.73;;;3.77;;
8909;SDS011;4490;49.072;8.804;2022-08-21T04:45:20;6.13;;;4.43;;
8909;SDS011;4490;49.072;8.804;2022-08-21T04:47:52;5.03;;;3.60;;
8909;SDS011;4490;49.072;8.804;2022-08-21T04:50:22;7.60;;;3.67;;
8909;SDS011;4490;49.072;8.804;2022-08-21T04:53:10;6.43;;;3.73;;
8909;SDS011;4490;49.072;8.804;2022-08-21T04:55:39;4.20;;;3.80;;
8909;SDS011;4490;49.072;8.804;2022-08-21T04:58:06;6.73;;;3.67;;
8909;SDS011;4490;49.072;8.804;2022-08-21T05:00:33;5.37;;;3.70;;
8909;SDS011;4490;49.072;8.804;2022-08-21T05:02:59;5.50;;;3.50;;
8909;SDS011;4490;49.072;8.804;2022-08-21T05:05:27;5.43;;;4.30;;
8909;SDS011;4490;49.072;8.804;2022-08-21T05:07:54;5.13;;;3.93;;
8909;SDS011;4490;49.072;8.804;2022-08-21T05:10:21;5.17;;;3.77;;
8909;SDS011;4490;49.072;8.804;2022-08-21T05:12:47;5.30;;;3.97;;
8909;SDS011;4490;49.072;8.804;2022-08-21T05:15:14;5.70;;;4.27;;
8909;SDS011;4490;49.072;8.804;2022-08-21T05:17:42;7.63;;;3.83;;
8909;SDS011;4490;49.072;8.804;2022-08-21T05:20:08;5.60;;;3.73;;
8909;SDS011;4490;49.072;8.804;2022-08-21T05:22:35;4.73;;;4.00;;
8909;SDS011;4490;49.072;8.804;2022-08-21T05:25:01;9.33;;;4.20;;
8909;SDS011;4490;49.072;8.804;2022-08-21T05:27:27;6.13;;;3.70;;
8909;SDS011;4490;49.072;8.804;2022-08-21T05:29:54;4.90;;;3.90;;
8909;SDS011;4490;49.072;8.804;2022-08-21T05:32:21;6.43;;;4.20;;
8909;SDS011;4490;49.072;8.804;2022-08-21T05:34:46;5.90;;;4.03;;
8909;SDS011;4490;49.072;8.804;2022-08-21T05:37:12;5.27;;;4.13;;
8909;SDS011;4490;49.072;8.804;2022-08-21T05:39:38;6.47;;;4.20;;
8909;SDS011;4490;49.072;8.804;2022-08-21T05:42:04;4.67;;;3.67;;
8909;SDS011;4490;49.072;8.804;2022-08-21T05:44:29;5.43;;;3.90;;
8909;SDS011;4490;49.072;8.804;2022-08-21T05:46:55;5.20;;;4.10;;
8909;SDS011;4490;49.072;8.804;2022-08-21T05:49:34;6.73;;;4.23;;
8909;SDS011;4490;49.072;8.804;2022-08-21T05:52:00;6.47;;;3.97;;
8909;SDS011;4490;49.072;8.804;2022-08-21T05:54:27;7.67;;;4.07;;
8909;SDS011;4490;49.072;8.804;2022-08-21T05:56:53;5.77;;;3.80;;
8909;SDS011;4490;49.072;8.804;2022-08-21T05:59:19;6.20;;;4.10;;
8909;SDS011;4490;49.072;8.804;2022-08-21T06:01:45;8.47;;;4.03;;
8909;SDS011;4490;49.072;8.804;2022-08-21T06:04:11;5.97;;;3.60;;
8909;SDS011;4490;49.072;8.804;2022-08-21T06:06:37;6.37;;;4.13;;
8909;SDS011;4490;49.072;8.804;2022-08-21T06:09:03;4.83;;;3.90;;
8909;SDS011;4490;49.072;8.804;2022-08-21T06:11:30;6.67;;;3.90;;
8909;SDS011;4490;49.072;8.804;2022-08-21T06:13:56;4.90;;;3.63;;
8909;SDS011;4490;49.072;8.804;2022-08-21T06:16:22;6.20;;;4.20;;
8909;SDS011;4490;49.072;8.804;2022-08-21T06:18:48;8.37;;;4.27;;
8909;SDS011;4490;49.072;8.804;2022-08-21T06:21:14;6.73;;;3.63;;
8909;SDS011;4490;49.072;8.804;2022-08-21T06:23:40;7.43;;;4.00;;
8909;SDS011;4490;49.072;8.804;2022-08-21T06:26:06;8.33;;;3.73;;
8909;SDS011;4490;49.072;8.804;2022-08-21T06:28:33;5.73;;;3.50;;
8909;SDS011;4490;49.072;8.804;2022-08-21T06:31:00;5.07;;;3.10;;
8909;SDS011;4490;49.072;8.804;2022-08-21T06:33:25;5.07;;;3.57;;
8909;SDS011;4490;49.072;8.804;2022-08-21T06:35:51;3.90;;;3.10;;
8909;SDS011;4490;49.072;8.804;2022-08-21T06:38:17;5.57;;;3.30;;
8909;SDS011;4490;49.072;8.804;2022-08-21T06:40:43;5.27;;;3.17;;
8909;SDS011;4490;49.072;8.804;2022-08-21T06:43:09;7.67;;;3.53;;
8909;SDS011;4490;49.072;8.804;2022-08-21T06:45:37;5.27;;;2.97;;
8909;SDS011;4490;49.072;8.804;2022-08-21T06:48:03;6.10;;;3.20;;
8909;SDS011;4490;49.072;8.804;2022-08-21T06:50:31;5.83;;;3.23;;
8909;SDS011;4490;49.072;8.804;2022-08-21T06:52:58;6.33;;;3.43;;
8909;SDS011;4490;49.072;8.804;2022-08-21T06:55:28;6.87;;;3.03;;
8909;SDS011;4490;49.072;8.804;2022-08-21T06:57:54;4.87;;;3.20;;
8909;SDS011;4490;49.072;8.804;2022-08-21T07:00:20;5.40;;;3.13;;
8909;SDS011;4490;49.072;8.804;2022-08-21T07:02:46;4.00;;;2.80;;
8909;SDS011;4490;49.072;8.804;2022-08-21T07:05:12;3.60;;;2.83;;
8909;SDS011;4490;49.072;8.804;2022-08-21T07:07:37;4.73;;;2.90;;
8909;SDS011;4490;49.072;8.804;2022-08-21T07:10:03;5.77;;;3.00;;
8909;SDS011;4490;49.072;8.804;2022-08-21T07:12:29;5.63;;;3.07;;
8909;SDS011;4490;49.072;8.804;2022-08-21T07:14:55;4.17;;;3.23;;
8909;SDS011;4490;49.072;8.804;2022-08-21T07:17:20;7.70;;;3.40;;
8909;SDS011;4490;49.072;8.804;2022-08-21T07:19:46;6.93;;;3.60;;
8909;SDS011;4490;49.072;8.804;2022-08-21T07:22:11;5.27;;;3.20;;
8909;SDS011;4490;49.072;8.804;2022-08-21T07:24:40;7.23;;;3.93;;
8909;SDS011;4490;49.072;8.804;2022-08-21T07:27:05;4.90;;;3.50;;
8909;SDS011;4490;49.072;8.804;2022-08-21T07:29:31;4.83;;;4.00;;
8909;SDS011;4490;49.072;8.804;2022-08-21T07:31:57;7.80;;;4.07;;
8909;SDS011;4490;49.072;8.804;2022-08-21T07:34:22;7.20;;;3.90;;
8909;SDS011;4490;49.072;8.804;2022-08-21T07:36:48;7.25;;;3.80;;
8909;SDS011;4490;49.072;8.804;2022-08-21T07:39:13;4.53;;;3.65;;
8909;SDS011;4490;49.072;8.804;2022-08-21T07:41:39;5.85;;;3.47;;
8909;SDS011;4490;49.072;8.804;2022-08-21T07:44:04;6.85;;;3.70;;
8909;SDS011;4490;49.072;8.804;2022-08-21T07:46:30;5.55;;;3.40;;
8909;SDS011;4490;49.072;8.804;2022-08-21T07:48:56;7.10;;;3.60;;
8909;SDS011;4490;49.072;8.804;2022-08-21T07:51:23;7.70;;;3.65;;
8909;SDS011;4490;49.072;8.804;2022-08-21T07:53:52;8.40;;;3.60;;
8909;SDS011;4490;49.072;8.804;2022-08-21T07:56:21;9.93;;;4.18;;
8909;SDS011;4490;49.072;8.804;2022-08-21T07:58:46;6.05;;;3.90;;
8909;SDS011;4490;49.072;8.804;2022-08-21T08:01:12;5.60;;;3.50;;
8909;SDS011;4490;49.072;8.804;2022-08-21T08:03:38;6.07;;;3.85;;
8909;SDS011;4490;49.072;8.804;2022-08-21T08:06:05;8.40;;;3.78;;
8909;SDS011;4490;49.072;8.804;2022-08-21T08:08:33;9.73;;;3.78;;
8909;SDS011;4490;49.072;8.804;2022-08-21T08:10:59;7.70;;;4.30;;
8909;SDS011;4490;49.072;8.804;2022-08-21T08:13:26;7.10;;;4.25;;
8909;SDS011;4490;49.072;8.804;2022-08-21T08:15:52;7.35;;;3.60;;
8909;SDS011;4490;49.072;8.804;2022-08-21T08:18:18;9.13;;;4.00;;
8909;SDS011;4490;49.072;8.804;2022-08-21T08:20:44;7.22;;;4.13;;
8909;SDS011;4490;49.072;8.804;2022-08-21T08:23:11;8.63;;;4.50;;
8909;SDS011;4490;49.072;8.804;2022-08-21T08:25:37;6.90;;;3.90;;
8909;SDS011;4490;49.072;8.804;2022-08-21T08:28:04;9.43;;;4.40;;
8909;SDS011;4490;49.072;8.804;2022-08-21T08:30:31;7.75;;;3.92;;
8909;SDS011;4490;49.072;8.804;2022-08-21T08:32:57;10.93;;;4.72;;
8909;SDS011;4490;49.072;8.804;2022-08-21T08:35:24;8.00;;;4.78;;
8909;SDS011;4490;49.072;8.804;2022-08-21T08:37:51;7.85;;;4.50;;
8909;SDS011;4490;49.072;8.804;2022-08-21T08:40:35;7.38;;;5.05;;
8909;SDS011;4490;49.072;8.804;2022-08-21T08:43:06;8.30;;;4.85;;
8909;SDS011;4490;49.072;8.804;2022-08-21T08:45:34;8.95;;;4.90;;
8909;SDS011;4490;49.072;8.804;2022-08-21T08:48:03;8.30;;;5.00;;
8909;SDS011;4490;49.072;8.804;2022-08-21T08:53:31;7.13;;;5.22;;
8909;SDS011;4490;49.072;8.804;2022-08-21T08:56:01;8.18;;;4.93;;
8909;SDS011;4490;49.072;8.804;2022-08-21T08:58:30;9.07;;;4.60;;
8909;SDS011;4490;49.072;8.804;2022-08-21T09:00:59;7.07;;;4.72;;
8909;SDS011;4490;49.072;8.804;2022-08-21T09:03:27;6.60;;;4.63;;
8909;SDS011;4490;49.072;8.804;2022-08-21T09:09:00;8.50;;;5.32;;
8909;SDS011;4490;49.072;8.804;2022-08-21T09:16:58;6.13;;;4.15;;
8909;SDS011;4490;49.072;8.804;2022-08-21T09:22:57;7.30;;;3.97;;
8909;SDS011;4490;49.072;8.804;2022-08-21T09:25:27;8.07;;;5.13;;
8909;SDS011;4490;49.072;8.804;2022-08-21T09:27:57;5.93;;;4.00;;
8909;SDS011;4490;49.072;8.804;2022-08-21T09:30:25;7.38;;;4.20;;
8909;SDS011;4490;49.072;8.804;2022-08-21T09:32:54;6.90;;;3.92;;
8909;SDS011;4490;49.072;8.804;2022-08-21T09:35:20;4.90;;;3.97;;
8909;SDS011;4490;49.072;8.804;2022-08-21T09:37:48;7.18;;;3.60;;
8909;SDS011;4490;49.072;8.804;2022-08-21T09:40:27;5.70;;;4.03;;
8909;SDS011;4490;49.072;8.804;2022-08-21T09:43:06;5.88;;;4.60;;
8909;SDS011;4490;49.072;8.804;2022-08-21T09:45:39;7.05;;;3.92;;
8909;SDS011;4490;49.072;8.804;2022-08-21T09:50:46;8.02;;;3.65;;
8909;SDS011;4490;49.072;8.804;2022-08-21T09:53:31;7.00;;;4.72;;
8909;SDS011;4490;49.072;8.804;2022-08-21T09:56:16;8.80;;;4.35;;
8909;SDS011;4490;49.072;8.804;2022-08-21T09:59:12;6.82;;;3.97;;
8909;SDS011;4490;49.072;8.804;2022-08-21T10:01:49;7.95;;;4.05;;
8909;SDS011;4490;49.072;8.804;2022-08-21T10:04:19;6.90;;;4.47;;
8909;SDS011;4490;49.072;8.804;2022-08-21T10:06:47;7.18;;;4.03;;
8909;SDS011;4490;49.072;8.804;2022-08-21T10:09:14;8.93;;;4.05;;
8909;SDS011;4490;49.072;8.804;2022-08-21T10:11:49;7.35;;;4.35;;
8909;SDS011;4490;49.072;8.804;2022-08-21T10:14:48;5.53;;;3.78;;
8909;SDS011;4490;49.072;8.804;2022-08-21T10:18:01;9.30;;;3.97;;
8909;SDS011;4490;49.072;8.804;2022-08-21T10:20:40;5.28;;;3.67;;
8909;SDS011;4490;49.072;8.804;2022-08-21T10:26:02;7.93;;;4.10;;
8909;SDS011;4490;49.072;8.804;2022-08-21T10:42:52;4.68;;;3.47;;
8909;SDS011;4490;49.072;8.804;2022-08-21T10:48:12;6.75;;;3.60;;
8909;SDS011;4490;49.072;8.804;2022-08-21T10:51:35;6.90;;;3.60;;
8909;SDS011;4490;49.072;8.804;2022-08-21T10:53:59;6.53;;;3.67;;
8909;SDS011;4490;49.072;8.804;2022-08-21T10:56:40;6.20;;;3.80;;
8909;SDS011;4490;49.072;8.804;2022-08-21T11:02:17;5.40;;;3.65;;
8909;SDS011;4490;49.072;8.804;2022-08-21T11:04:57;6.82;;;3.58;;
8909;SDS011;4490;49.072;8.804;2022-08-21T11:07:32;5.50;;;3.55;;
8909;SDS011;4490;49.072;8.804;2022-08-21T11:10:53;5.00;;;3.13;;
8909;SDS011;4490;49.072;8.804;2022-08-21T11:18:43;5.88;;;3.20;;
8909;SDS011;4490;49.072;8.804;2022-08-21T11:24:23;4.90;;;3.25;;
8909;SDS011;4490;49.072;8.804;2022-08-21T11:27:04;6.00;;;2.97;;
8909;SDS011;4490;49.072;8.804;2022-08-21T11:29:43;5.50;;;3.70;;
8909;SDS011;4490;49.072;8.804;2022-08-21T11:45:54;7.80;;;3.38;;
8909;SDS011;4490;49.072;8.804;2022-08-21T11:51:10;6.18;;;3.35;;
8909;SDS011;4490;49.072;8.804;2022-08-21T11:53:44;5.60;;;3.35;;
8909;SDS011;4490;49.072;8.804;2022-08-21T11:56:21;5.50;;;3.70;;
8909;SDS011;4490;49.072;8.804;2022-08-21T11:58:55;5.38;;;3.38;;
8909;SDS011;4490;49.072;8.804;2022-08-21T12:01:28;6.50;;;3.60;;
8909;SDS011;4490;49.072;8.804;2022-08-21T12:04:02;5.82;;;3.20;;
8909;SDS011;4490;49.072;8.804;2022-08-21T12:09:05;5.82;;;3.35;;
8909;SDS011;4490;49.072;8.804;2022-08-21T12:11:48;6.70;;;3.58;;
8909;SDS011;4490;49.072;8.804;2022-08-21T12:14:24;8.95;;;3.28;;
8909;SDS011;4490;49.072;8.804;2022-08-21T12:17:07;7.22;;;3.20;;
8909;SDS011;4490;49.072;8.804;2022-08-21T12:19:34;6.35;;;3.15;;
8909;SDS011;4490;49.072;8.804;2022-08-21T12:24:42;4.63;;;3.50;;
8909;SDS011;4490;49.072;8.804;2022-08-21T12:27:19;6.35;;;3.80;;
8909;SDS011;4490;49.072;8.804;2022-08-21T12:30:00;3.42;;;2.90;;
8909;SDS011;4490;49.072;8.804;2022-08-21T12:32:30;5.78;;;3.58;;
8909;SDS011;4490;49.072;8.804;2022-08-21T12:35:18;4.90;;;3.03;;
8909;SDS011;4490;49.072;8.804;2022-08-21T12:40:36;4.70;;;3.10;;
8909;SDS011;4490;49.072;8.804;2022-08-21T12:43:04;6.47;;;3.30;;
8909;SDS011;4490;49.072;8.804;2022-08-21T12:45:40;5.90;;;3.38;;
8909;SDS011;4490;49.072;8.804;2022-08-21T12:48:10;5.78;;;3.13;;
8909;SDS011;4490;49.072;8.804;2022-08-21T12:50:46;4.50;;;3.22;;
8909;SDS011;4490;49.072;8.804;2022-08-21T12:53:26;4.43;;;2.90;;
8909;SDS011;4490;49.072;8.804;2022-08-21T12:55:56;3.95;;;3.03;;
8909;SDS011;4490;49.072;8.804;2022-08-21T12:58:29;4.80;;;3.13;;
8909;SDS011;4490;49.072;8.804;2022-08-21T13:01:01;4.50;;;3.10;;
8909;SDS011;4490;49.072;8.804;2022-08-21T13:03:31;4.53;;;3.00;;
8909;SDS011;4490;49.072;8.804;2022-08-21T13:06:03;4.57;;;2.70;;
8909;SDS011;4490;49.072;8.804;2022-08-21T13:08:30;5.60;;;3.53;;
8909;SDS011;4490;49.072;8.804;2022-08-21T13:11:05;5.80;;;3.20;;
8909;SDS011;4490;49.072;8.804;2022-08-21T13:13:31;4.13;;;3.03;;
8909;SDS011;4490;49.072;8.804;2022-08-21T13:15:59;4.05;;;2.90;;
8909;SDS011;4490;49.072;8.804;2022-08-21T13:18:31;5.75;;;2.97;;
8909;SDS011;4490;49.072;8.804;2022-08-21T13:21:03;4.85;;;3.05;;
8909;SDS011;4490;49.072;8.804;2022-08-21T13:23:36;4.18;;;3.15;;
8909;SDS011;4490;49.072;8.804;2022-08-21T13:26:02;4.72;;;3.50;;
8909;SDS011;4490;49.072;8.804;2022-08-21T13:28:41;3.95;;;3.00;;
8909;SDS011;4490;49.072;8.804;2022-08-21T13:31:09;5.70;;;3.00;;
8909;SDS011;4490;49.072;8.804;2022-08-21T13:33:35;3.15;;;2.83;;
8909;SDS011;4490;49.072;8.804;2022-08-21T13:36:05;5.38;;;3.05;;
8909;SDS011;4490;49.072;8.804;2022-08-21T13:38:34;3.78;;;2.90;;
8909;SDS011;4490;49.072;8.804;2022-08-21T13:41:02;3.40;;;2.75;;
8909;SDS011;4490;49.072;8.804;2022-08-21T13:43:32;5.53;;;3.17;;
8909;SDS011;4490;49.072;8.804;2022-08-21T13:46:00;3.58;;;2.95;;
8909;SDS011;4490;49.072;8.804;2022-08-21T13:48:27;5.32;;;3.08;;
8909;SDS011;4490;49.072;8.804;2022-08-21T13:50:56;5.18;;;3.30;;
8909;SDS011;4490;49.072;8.804;2022-08-21T13:53:27;4.57;;;3.22;;
8909;SDS011;4490;49.072;8.804;2022-08-21T13:55:56;3.75;;;2.95;;
8909;SDS011;4490;49.072;8.804;2022-08-21T13:58:26;4.10;;;2.92;;
8909;SDS011;4490;49.072;8.804;2022-08-21T14:00:57;4.38;;;3.35;;
8909;SDS011;4490;49.072;8.804;2022-08-21T14:03:40;3.58;;;3.00;;
8909;SDS011;4490;49.072;8.804;2022-08-21T14:06:22;3.70;;;3.10;;
8909;SDS011;4490;49.072;8.804;2022-08-21T14:08:51;5.03;;;3.00;;
8909;SDS011;4490;49.072;8.804;2022-08-21T14:11:24;5.13;;;3.05;;
8909;SDS011;4490;49.072;8.804;2022-08-21T14:16:23;4.93;;;3.05;;
8909;SDS011;4490;49.072;8.804;2022-08-21T14:21:47;4.28;;;3.00;;
8909;SDS011;4490;49.072;8.804;2022-08-21T14:24:14;4.32;;;2.90;;
8909;SDS011;4490;49.072;8.804;2022-08-21T14:29:25;3.47;;;3.00;;
8909;SDS011;4490;49.072;8.804;2022-08-21T14:31:56;4.13;;;2.88;;
8909;SDS011;4490;49.072;8.804;2022-08-21T14:34:27;4.55;;;3.20;;
8909;SDS011;4490;49.072;8.804;2022-08-21T14:36:54;3.50;;;2.80;;
8909;SDS011;4490;49.072;8.804;2022-08-21T14:39:20;4.65;;;3.10;;
8909;SDS011;4490;49.072;8.804;2022-08-21T14:41:46;3.75;;;2.72;;
8909;SDS011;4490;49.072;8.804;2022-08-21T14:44:14;4.18;;;2.70;;
8909;SDS011;4490;49.072;8.804;2022-08-21T14:46:41;3.35;;;3.00;;
8909;SDS011;4490;49.072;8.804;2022-08-21T14:49:07;3.88;;;2.92;;
8909;SDS011;4490;49.072;8.804;2022-08-21T14:51:33;4.22;;;2.80;;
8909;SDS011;4490;49.072;8.804;2022-08-21T14:53:58;5.45;;;3.00;;
8909;SDS011;4490;49.072;8.804;2022-08-21T14:56:24;4.63;;;2.72;;
8909;SDS011;4490;49.072;8.804;2022-08-21T14:58:51;6.20;;;2.90;;
8909;SDS011;4490;49.072;8.804;2022-08-21T15:01:18;2.95;;;2.60;;
8909;SDS011;4490;49.072;8.804;2022-08-21T15:03:46;5.47;;;2.97;;
8909;SDS011;4490;49.072;8.804;2022-08-21T15:06:13;7.70;;;3.20;;
8909;SDS011;4490;49.072;8.804;2022-08-21T15:08:42;5.32;;;3.42;;
8909;SDS011;4490;49.072;8.804;2022-08-21T15:11:08;4.72;;;3.00;;
8909;SDS011;4490;49.072;8.804;2022-08-21T15:13:40;3.63;;;3.00;;
8909;SDS011;4490;49.072;8.804;2022-08-21T15:16:07;5.10;;;2.72;;
8909;SDS011;4490;49.072;8.804;2022-08-21T15:18:35;4.93;;;3.03;;
8909;SDS011;4490;49.072;8.804;2022-08-21T15:21:01;4.00;;;2.90;;
8909;SDS011;4490;49.072;8.804;2022-08-21T15:23:26;4.47;;;2.83;;
8909;SDS011;4490;49.072;8.804;2022-08-21T15:25:52;3.88;;;2.50;;
8909;SDS011;4490;49.072;8.804;2022-08-21T15:28:19;3.95;;;2.90;;
8909;SDS011;4490;49.072;8.804;2022-08-21T15:30:49;6.07;;;2.72;;
8909;SDS011;4490;49.072;8.804;2022-08-21T15:33:17;4.78;;;3.00;;
8909;SDS011;4490;49.072;8.804;2022-08-21T15:35:43;4.10;;;2.63;;
8909;SDS011;4490;49.072;8.804;2022-08-21T15:38:11;5.45;;;3.17;;
8909;SDS011;4490;49.072;8.804;2022-08-21T15:40:39;4.13;;;2.75;;
8909;SDS011;4490;49.072;8.804;2022-08-21T15:43:06;4.38;;;3.00;;
8909;SDS011;4490;49.072;8.804;2022-08-21T15:45:41;4.25;;;3.03;;
8909;SDS011;4490;49.072;8.804;2022-08-21T15:48:06;3.35;;;2.70;;
8909;SDS011;4490;49.072;8.804;2022-08-21T15:50:32;5.60;;;2.92;;
8909;SDS011;4490;49.072;8.804;2022-08-21T15:52:58;4.68;;;3.10;;
8909;SDS011;4490;49.072;8.804;2022-08-21T15:55:23;4.78;;;3.22;;
8909;SDS011;4490;49.072;8.804;2022-08-21T15:57:49;3.88;;;2.83;;
8909;SDS011;4490;49.072;8.804;2022-08-21T16:00:18;4.97;;;2.78;;
8909;SDS011;4490;49.072;8.804;2022-08-21T16:02:49;3.20;;;2.90;;
8909;SDS011;4490;49.072;8.804;2022-08-21T16:05:18;4.82;;;2.60;;
8909;SDS011;4490;49.072;8.804;2022-08-21T16:07:44;3.83;;;2.60;;
8909;SDS011;4490;49.072;8.804;2022-08-21T16:10:12;3.60;;;2.70;;
8909;SDS011;4490;49.072;8.804;2022-08-21T16:12:46;3.80;;;2.60;;
8909;SDS011;4490;49.072;8.804;2022-08-21T16:15:15;4.53;;;2.92;;
8909;SDS011;4490;49.072;8.804;2022-08-21T16:17:43;5.25;;;2.80;;
8909;SDS011;4490;49.072;8.804;2022-08-21T16:20:13;4.57;;;2.55;;
8909;SDS011;4490;49.072;8.804;2022-08-21T16:22:41;4.90;;;2.55;;
8909;SDS011;4490;49.072;8.804;2022-08-21T16:25:07;3.38;;;2.60;;
8909;SDS011;4490;49.072;8.804;2022-08-21T16:27:34;3.67;;;2.65;;
8909;SDS011;4490;49.072;8.804;2022-08-21T16:30:01;4.47;;;2.80;;
8909;SDS011;4490;49.072;8.804;2022-08-21T16:32:28;3.92;;;2.40;;
8909;SDS011;4490;49.072;8.804;2022-08-21T16:34:54;4.60;;;2.47;;
8909;SDS011;4490;49.072;8.804;2022-08-21T16:37:19;3.10;;;2.50;;
8909;SDS011;4490;49.072;8.804;2022-08-21T16:39:46;5.13;;;3.08;;
8909;SDS011;4490;49.072;8.804;2022-08-21T16:42:12;4.80;;;2.75;;
8909;SDS011;4490;49.072;8.804;2022-08-21T16:44:42;3.10;;;2.40;;
8909;SDS011;4490;49.072;8.804;2022-08-21T16:47:08;3.47;;;2.55;;
8909;SDS011;4490;49.072;8.804;2022-08-21T16:49:34;3.88;;;2.72;;